createdAt,value
2022-12-03T00:00:13.497Z,96112.38
2022-12-03T00:01:19.796Z,96108.09
2022-12-03T00:02:21.977Z,96107.22
2022-12-03T00:03:27.051Z,96108.00
2022-12-03T00:04:29.342Z,96108.09
2022-12-03T00:05:34.399Z,96108.94
2022-12-03T00:06:36.465Z,96106.38
2022-12-03T00:07:42.752Z,96101.31
2022-12-03T00:08:44.791Z,96102.94
2022-12-03T00:09:49.470Z,96105.50
2022-12-03T00:10:51.713Z,96104.66
2022-12-03T00:11:56.484Z,96101.28
2022-12-03T00:13:01.222Z,96100.44
2022-12-03T00:14:07.461Z,96100.50
2022-12-03T00:15:11.178Z,96102.03
2022-12-03T00:16:17.705Z,96094.38
2022-12-03T00:17:19.860Z,96099.44
2022-12-03T00:18:24.559Z,96103.81
2022-12-03T00:19:26.583Z,96105.59
2022-12-03T00:20:31.164Z,96108.16
2022-12-03T00:21:33.244Z,96098.59
2022-12-03T00:22:37.915Z,96105.50
2022-12-03T00:23:42.330Z,96103.00
2022-12-03T00:24:47.212Z,96104.72
2022-12-03T00:25:51.828Z,96100.44
2022-12-03T00:26:53.897Z,96097.88
2022-12-03T00:27:58.465Z,96101.09
2022-12-03T00:29:03.487Z,96102.00
2022-12-03T00:30:11.388Z,96100.38
2022-12-03T00:31:13.411Z,96097.78
2022-12-03T00:32:18.055Z,96094.44
2022-12-03T00:33:20.451Z,96093.50
2022-12-03T00:34:25.158Z,96096.06
2022-12-03T00:35:27.151Z,96101.16
2022-12-03T00:36:31.769Z,96107.22
2022-12-03T00:37:35.274Z,96095.16
2022-12-03T00:38:40.000Z,96099.50
2022-12-03T00:39:42.195Z,96106.31
2022-12-03T00:40:46.963Z,96105.50
2022-12-03T00:41:48.985Z,96097.88
2022-12-03T00:42:53.642Z,96102.06
2022-12-03T09:03:21.627Z,96108.47
2022-12-03T09:04:27.705Z,96109.25
2022-12-03T09:05:35.276Z,96107.72
2022-12-03T09:06:37.365Z,96106.00
2022-12-03T09:07:42.084Z,96101.75
2022-12-03T09:08:44.664Z,96102.63
2022-12-03T09:09:49.389Z,96110.19
2022-12-03T09:10:51.638Z,96106.81
2022-12-03T09:11:59.510Z,96108.56
2022-12-03T09:13:01.658Z,96101.66
2022-12-03T09:14:06.889Z,96104.19
2022-12-03T09:15:13.048Z,96106.84
2022-12-03T09:16:15.253Z,96100.81
2022-12-03T09:17:20.119Z,96105.19
2022-12-03T09:18:25.006Z,96105.88
2022-12-03T09:19:31.356Z,96104.25
2022-12-03T09:20:33.540Z,96108.53
2022-12-03T09:21:38.427Z,96108.41
2022-12-03T09:22:43.329Z,96104.16
2022-12-03T09:23:45.402Z,96102.38
2022-12-03T09:24:50.150Z,96097.22
2022-12-03T09:25:52.375Z,96098.03
2022-12-03T09:26:57.280Z,96093.09
2022-12-03T09:27:59.583Z,96091.38
2022-12-03T09:29:08.918Z,96085.41
2022-12-03T09:30:14.530Z,96082.91
2022-12-03T09:31:19.924Z,96090.44
2022-12-03T09:32:22.251Z,96082.88
2022-12-03T09:33:31.261Z,96085.38
2022-12-03T09:34:35.996Z,96082.78
2022-12-03T09:35:38.159Z,96075.88
2022-12-03T09:36:43.584Z,96069.88
2022-12-03T09:37:45.705Z,96065.59
2022-12-03T09:38:50.432Z,96061.97
2022-12-03T09:39:55.444Z,96061.03
2022-12-03T09:40:57.539Z,96066.97
2022-12-03T09:42:04.870Z,96057.69
2022-12-03T09:43:07.112Z,96067.03
2022-12-03T09:44:17.686Z,96061.91
2022-12-03T09:45:20.553Z,96063.59
2022-12-03T09:46:25.785Z,96062.66
2022-12-03T09:47:32.678Z,96063.53
2022-12-03T09:48:37.770Z,96062.47
2022-12-03T09:49:43.553Z,96059.91
2022-12-03T09:50:48.978Z,96065.88
2022-12-03T09:51:54.056Z,96064.13
2022-12-03T09:53:04.980Z,96064.19
2022-12-03T09:54:10.085Z,96070.19
2022-12-03T09:55:17.000Z,96059.84
2022-12-03T09:56:24.864Z,96070.00
2022-12-03T09:57:29.506Z,96068.28
2022-12-03T09:58:35.016Z,96067.16
2022-12-03T10:00:51.468Z,96069.00
2022-12-03T10:01:57.146Z,96063.81
2022-12-03T10:05:56.607Z,96072.63
2022-12-03T10:09:04.624Z,96073.44
2022-12-03T10:09:08.319Z,96071.63
2022-12-03T10:10:18.396Z,96077.81
2022-12-03T10:11:29.576Z,96075.38
2022-12-03T10:12:45.035Z,96076.09
2022-12-03T10:13:58.230Z,96076.03
2022-12-03T10:24:45.205Z,96073.81
2022-12-03T10:25:53.027Z,96064.50
2022-12-03T10:27:02.346Z,96063.66
2022-12-03T10:28:05.462Z,96061.84
2022-12-03T10:29:16.026Z,96069.47
2022-12-03T10:30:23.717Z,96065.25
2022-12-03T10:31:38.771Z,96069.44
2022-12-03T10:32:48.820Z,96062.63
2022-12-03T10:34:04.143Z,96060.84
2022-12-03T10:35:12.401Z,96060.09
2022-12-03T10:36:23.435Z,96058.47
2022-12-03T10:37:28.285Z,96057.69
2022-12-03T10:38:30.457Z,96055.09
2022-12-03T10:39:56.658Z,96057.75
2022-12-03T10:41:03.140Z,96056.75
2022-12-03T10:42:18.370Z,96052.41
2022-12-03T10:43:29.456Z,96055.84
2022-12-03T10:44:31.837Z,96052.47
2022-12-03T10:45:36.721Z,96050.69
2022-12-03T10:46:41.808Z,96044.66
2022-12-03T10:48:06.521Z,96043.78
2022-12-03T10:49:13.143Z,96036.00
2022-12-03T10:50:18.108Z,96038.44
2022-12-03T10:51:23.844Z,96030.63
2022-12-03T10:52:26.331Z,96037.59
2022-12-03T10:53:33.084Z,96030.72
2022-12-03T10:54:38.717Z,96035.78
2022-12-03T10:55:43.530Z,96022.25
2022-12-03T10:56:49.784Z,96026.56
2022-12-03T10:57:52.548Z,96026.53
2022-12-03T10:58:58.211Z,96018.78
2022-12-03T11:00:00.491Z,96016.13
2022-12-03T11:01:13.531Z,96021.31
2022-12-03T11:02:22.834Z,96012.72
2022-12-03T11:03:32.444Z,96016.00
2022-12-03T11:04:36.914Z,96010.03
2022-12-03T11:05:41.786Z,96003.28
2022-12-03T11:06:46.720Z,96006.59
2022-12-03T11:07:49.200Z,96004.78
2022-12-03T11:09:01.388Z,95997.94
2022-12-03T11:10:15.310Z,96002.44
2022-12-03T11:11:21.892Z,95992.34
2022-12-03T11:12:28.741Z,95992.34
2022-12-03T11:13:50.298Z,95992.97
2022-12-03T11:15:12.170Z,95993.66
2022-12-03T11:16:15.120Z,95992.91
2022-12-03T11:17:51.693Z,95996.22
2022-12-03T11:19:03.544Z,96001.41
2022-12-03T11:20:18.084Z,95997.81
2022-12-03T11:21:26.051Z,95998.72
2022-12-03T11:22:48.583Z,95995.25
2022-12-03T11:24:18.678Z,95996.91
2022-12-03T11:25:58.467Z,95996.78
2022-12-03T11:27:28.883Z,95992.34
2022-12-03T11:28:53.355Z,95990.69
2022-12-03T11:30:02.642Z,95997.47
2022-12-03T11:31:11.913Z,95986.69
2022-12-03T11:33:09.252Z,95990.38
2022-12-03T11:34:52.830Z,95979.34
2022-12-03T11:36:16.925Z,95986.97
2022-12-03T11:37:23.760Z,95986.91
2022-12-03T11:38:54.022Z,95992.31
2022-12-03T11:40:33.507Z,95986.91
2022-12-03T11:41:41.099Z,95987.88
2022-12-03T11:42:44.141Z,95986.97
2022-12-03T11:44:29.650Z,95984.53
2022-12-03T11:45:38.140Z,95985.28
2022-12-03T11:46:43.926Z,95992.25
2022-12-03T11:47:51.083Z,95993.03
2022-12-03T11:48:55.292Z,95996.34
2022-12-03T11:50:00.393Z,95991.19
2022-12-03T11:51:05.341Z,95987.75
2022-12-03T11:52:33.762Z,95986.25
2022-12-03T11:53:38.912Z,95988.06
2022-12-03T11:54:41.158Z,95988.06
2022-12-03T11:55:49.048Z,95985.69
2022-12-03T11:56:52.219Z,95994.13
2022-12-03T11:58:01.383Z,95990.59
2022-12-03T11:59:15.087Z,95996.75
2022-12-03T12:00:24.469Z,95983.03
2022-12-03T12:01:38.250Z,95986.53
2022-12-03T12:02:43.945Z,95984.66
2022-12-03T12:03:51.207Z,95982.09
2022-12-03T12:04:53.755Z,95973.66
2022-12-03T12:06:06.998Z,95974.81
2022-12-03T12:07:09.208Z,95971.19
2022-12-03T12:08:22.418Z,95970.47
2022-12-03T12:09:49.688Z,95959.91
2022-12-03T12:10:54.677Z,95965.78
2022-12-03T12:12:19.822Z,95958.06
2022-12-03T12:13:55.735Z,95962.41
2022-12-03T12:14:59.194Z,95958.81
2022-12-03T12:16:05.345Z,95955.28
2022-12-03T12:17:37.246Z,95951.94
2022-12-03T12:18:44.095Z,95945.25
2022-12-03T12:19:54.384Z,95947.06
2022-12-03T12:21:16.972Z,95949.72
2022-12-03T12:22:32.162Z,95945.69
2022-12-03T12:23:37.071Z,95944.00
2022-12-03T12:24:51.702Z,95949.03
2022-12-03T12:25:56.946Z,95947.25
2022-12-03T12:27:01.233Z,95940.41
2022-12-03T12:28:06.318Z,95938.69
2022-12-03T12:29:08.632Z,95943.06
2022-12-03T12:30:18.179Z,95944.03
2022-12-03T12:31:20.637Z,95950.66
2022-12-03T12:32:31.921Z,95941.31
2022-12-03T12:33:36.855Z,95942.22
2022-12-03T12:34:40.341Z,95934.53
2022-12-03T12:35:48.127Z,95934.50
2022-12-03T12:36:57.189Z,95930.06
2022-12-03T12:38:13.746Z,95931.91
2022-12-03T12:39:19.077Z,95930.03
2022-12-03T12:40:27.067Z,95933.44
2022-12-03T12:41:29.312Z,95925.69
2022-12-03T12:42:36.957Z,95930.19
2022-12-03T12:43:42.447Z,95930.28
2022-12-03T12:44:45.070Z,95932.06
2022-12-03T12:45:50.162Z,95931.97
2022-12-03T12:46:54.116Z,95930.41
2022-12-03T12:48:08.410Z,95933.78
2022-12-03T12:49:14.519Z,95932.19
2022-12-03T12:50:19.151Z,95923.41
2022-12-03T12:51:24.130Z,95926.31
2022-12-03T12:52:27.727Z,95934.19
2022-12-03T12:53:35.666Z,95928.97
2022-12-03T12:54:41.002Z,95927.22
2022-12-03T12:55:45.887Z,95922.22
2022-12-03T12:56:53.067Z,95926.44
2022-12-03T12:58:11.491Z,95916.28
2022-12-03T12:59:19.375Z,95921.31
2022-12-03T13:00:24.009Z,95918.91
2022-12-03T13:01:31.528Z,95920.69
2022-12-03T13:02:44.504Z,95922.44
2022-12-03T13:03:53.008Z,95920.75
2022-12-03T13:04:55.217Z,95919.81
2022-12-03T13:06:00.604Z,95923.19
2022-12-03T13:07:02.858Z,95910.38
2022-12-03T13:08:21.773Z,95913.84
2022-12-03T13:09:28.467Z,95912.81
2022-12-03T13:10:44.242Z,95911.31
2022-12-03T13:11:54.757Z,95917.28
2022-12-03T13:12:59.832Z,95909.50
2022-12-03T13:14:08.566Z,95912.75
2022-12-03T13:15:34.926Z,95913.50
2022-12-03T13:16:39.905Z,95907.66
2022-12-03T13:17:42.264Z,95908.75
2022-12-03T13:18:50.017Z,95918.13
2022-12-03T13:20:01.972Z,95914.63
2022-12-03T13:21:27.478Z,95913.03
2022-12-03T13:22:30.125Z,95910.47
2022-12-03T13:23:37.309Z,95913.03
2022-12-03T13:24:44.120Z,95917.28
2022-12-03T13:26:07.165Z,95917.50
2022-12-03T13:27:29.686Z,95909.91
2022-12-03T13:28:33.919Z,95922.88
2022-12-03T13:29:38.914Z,95923.75
2022-12-03T13:30:41.276Z,95921.31
2022-12-03T13:31:55.586Z,95925.47
2022-12-03T13:32:58.374Z,95926.38
2022-12-03T13:34:05.125Z,95930.09
2022-12-03T13:35:17.601Z,95921.59
2022-12-03T13:36:24.549Z,95925.94
2022-12-03T13:37:28.529Z,95926.81
2022-12-03T13:38:33.310Z,95912.38
2022-12-03T13:39:41.126Z,95914.03
2022-12-03T13:40:46.239Z,95913.00
2022-12-03T13:42:18.120Z,95917.41
2022-12-03T13:43:23.051Z,95908.84
2022-12-03T13:44:27.520Z,95912.06
2022-12-03T13:45:39.936Z,95901.75
2022-12-03T13:46:42.563Z,95899.16
2022-12-03T13:47:49.517Z,95895.00
2022-12-03T13:48:57.452Z,95893.22
2022-12-03T13:50:13.931Z,95895.75
2022-12-03T13:51:24.355Z,95898.28
2022-12-03T13:52:29.696Z,95900.88
2022-12-03T13:53:36.959Z,95899.22
2022-12-03T13:54:42.990Z,95899.50
2022-12-03T13:55:48.453Z,95899.50
2022-12-03T13:57:00.409Z,95892.63
2022-12-03T13:58:06.681Z,95905.44
2022-12-03T13:59:16.020Z,95907.19
2022-12-03T14:00:20.536Z,95906.44
2022-12-03T14:01:29.550Z,95912.50
2022-12-03T14:02:52.579Z,95911.69
2022-12-03T14:04:02.430Z,95911.69
2022-12-03T14:05:11.195Z,95915.88
2022-12-03T14:06:17.415Z,95908.28
2022-12-03T14:07:22.273Z,95907.38
2022-12-03T14:08:27.062Z,95904.84
2022-12-03T14:09:29.179Z,95898.84
2022-12-03T14:10:33.914Z,95909.91
2022-12-03T14:11:51.369Z,95902.13
2022-12-03T14:12:59.128Z,95903.78
2022-12-03T14:14:04.178Z,95899.56
2022-12-03T14:15:10.924Z,95891.84
2022-12-03T14:16:13.178Z,95891.06
2022-12-03T14:17:18.040Z,95892.66
2022-12-03T14:18:22.755Z,95893.56
2022-12-03T14:19:24.933Z,95890.94
2022-12-03T14:20:29.737Z,95896.13
2022-12-03T14:21:31.939Z,95900.50
2022-12-03T14:22:38.154Z,95898.00
2022-12-03T14:23:40.355Z,95903.31
2022-12-03T14:24:45.205Z,95898.13
2022-12-03T14:25:47.353Z,95904.94
2022-12-03T14:26:52.124Z,95903.28
2022-12-03T14:28:04.018Z,95907.50
2022-12-03T14:29:09.156Z,95902.41
2022-12-03T14:30:15.234Z,95908.41
2022-12-03T14:31:17.397Z,95904.06
2022-12-03T14:32:22.351Z,95908.34
2022-12-03T14:33:27.191Z,95902.34
2022-12-03T14:34:29.360Z,95904.84
2022-12-03T14:35:34.180Z,95908.34
2022-12-03T14:36:39.006Z,95910.13
2022-12-03T14:37:41.178Z,95908.38
2022-12-03T14:38:45.953Z,95906.00
2022-12-03T14:39:50.695Z,95914.41
2022-12-03T14:40:52.879Z,95910.25
2022-12-03T14:42:10.293Z,95908.72
2022-12-03T14:43:17.763Z,95910.47
2022-12-03T14:44:22.027Z,95912.03
2022-12-03T14:45:28.756Z,95918.09
2022-12-03T14:46:31.509Z,95928.34
2022-12-03T14:47:36.342Z,95917.25
2022-12-03T14:48:38.537Z,95920.75
2022-12-03T14:49:43.419Z,95915.53
2022-12-03T14:50:45.711Z,95913.88
2022-12-03T14:51:50.552Z,95915.63
2022-12-03T14:52:55.315Z,95911.31
2022-12-03T14:53:57.431Z,95910.44
2022-12-03T14:55:02.464Z,95904.50
2022-12-03T14:56:04.837Z,95911.44
2022-12-03T14:57:09.593Z,95907.16
2022-12-03T14:58:17.048Z,95904.59
2022-12-03T14:59:24.371Z,95906.31
2022-12-03T15:00:32.082Z,95919.13
2022-12-03T15:01:34.338Z,95920.84
2022-12-03T15:02:39.271Z,95918.25
2022-12-03T15:03:41.546Z,95909.75
2022-12-03T15:04:46.401Z,95913.94
2022-12-03T15:05:49.237Z,95912.25
2022-12-03T15:06:54.139Z,95905.44
2022-12-03T15:07:59.140Z,95910.69
2022-12-03T15:09:01.553Z,95920.94
2022-12-03T15:10:07.093Z,95919.19
2022-12-03T15:11:09.793Z,95919.09
2022-12-03T15:12:14.678Z,95924.19
2022-12-03T15:13:19.457Z,95921.72
2022-12-03T15:14:24.272Z,95914.97
2022-12-03T15:15:26.611Z,95915.84
2022-12-03T15:16:31.443Z,95915.78
2022-12-03T15:17:33.805Z,95927.66
2022-12-03T15:18:38.636Z,95926.84
2022-12-03T15:19:43.427Z,95918.28
2022-12-03T15:20:49.300Z,95919.03
2022-12-03T15:21:54.006Z,95921.63
2022-12-03T15:22:58.776Z,95925.00
2022-12-03T15:24:01.079Z,95917.38
2022-12-03T15:25:07.825Z,95916.59
2022-12-03T15:26:09.986Z,95916.56
2022-12-03T15:27:14.755Z,95915.78
2022-12-03T15:28:19.496Z,95914.88
2022-12-03T15:29:27.032Z,95921.63
2022-12-03T15:30:29.325Z,95913.97
2022-12-03T15:31:34.404Z,95911.47
2022-12-03T15:32:39.320Z,95920.00
2022-12-03T15:33:44.264Z,95914.91
2022-12-03T15:34:51.449Z,95907.22
2022-12-03T15:35:56.258Z,95908.00
2022-12-03T15:37:03.130Z,95908.03
2022-12-03T15:38:05.316Z,95913.09
2022-12-03T15:39:10.075Z,95906.25
2022-12-03T15:40:13.402Z,95907.00
2022-12-03T15:41:24.943Z,95907.06
2022-12-03T15:42:28.237Z,95907.09
2022-12-03T15:43:35.654Z,95912.25
2022-12-03T15:44:40.987Z,95914.13
2022-12-03T15:45:43.249Z,95920.94
2022-12-03T15:46:48.135Z,95920.94
2022-12-03T15:47:52.899Z,95919.13
2022-12-03T15:48:58.461Z,95926.03
2022-12-03T15:50:00.862Z,95917.59
2022-12-03T15:51:05.724Z,95924.28
2022-12-03T15:52:10.725Z,95922.56
2022-12-03T15:53:15.564Z,95923.44
2022-12-03T15:54:17.691Z,95915.84
2022-12-03T15:55:22.634Z,95926.88
2022-12-03T15:56:27.502Z,95926.94
2022-12-03T15:57:31.319Z,95924.28
2022-12-03T15:58:38.718Z,95914.91
2022-12-03T15:59:45.844Z,95914.91
2022-12-03T16:00:50.623Z,95912.34
2022-12-03T16:01:55.477Z,95915.00
2022-12-03T16:03:00.262Z,95913.25
2022-12-03T16:04:02.563Z,95914.88
2022-12-03T16:05:10.170Z,95907.16
2022-12-03T16:06:15.887Z,95906.47
2022-12-03T16:07:18.018Z,95906.56
2022-12-03T16:08:22.852Z,95908.28
2022-12-03T16:09:28.108Z,95903.13
2022-12-03T16:10:33.056Z,95905.59
2022-12-03T16:11:37.857Z,95910.69
2022-12-03T16:12:40.515Z,95909.03
2022-12-03T16:13:48.051Z,95907.34
2022-12-03T16:14:50.287Z,95909.81
2022-12-03T16:15:55.159Z,95905.53
2022-12-03T16:16:59.149Z,95904.75
2022-12-03T16:18:06.579Z,95908.13
2022-12-03T16:19:11.369Z,95915.91
2022-12-03T16:20:16.207Z,95906.53
2022-12-03T16:21:23.374Z,95907.47
2022-12-03T16:22:31.153Z,95904.91
2022-12-03T16:23:33.317Z,95906.66
2022-12-03T16:24:38.031Z,95907.50
2022-12-03T16:25:43.106Z,95908.28
2022-12-03T16:26:45.306Z,95904.06
2022-12-03T16:27:50.135Z,95907.41
2022-12-03T16:28:59.429Z,95907.44
2022-12-03T16:30:04.259Z,95902.41
2022-12-03T16:31:06.622Z,95901.47
2022-12-03T16:32:11.491Z,95903.19
2022-12-03T16:33:13.648Z,95909.16
2022-12-03T16:34:18.441Z,95903.16
2022-12-03T16:35:20.635Z,95904.84
2022-12-03T16:36:25.388Z,95899.75
2022-12-03T16:37:27.614Z,95906.56
2022-12-03T16:38:33.955Z,95903.25
2022-12-03T16:39:39.328Z,95910.88
2022-12-03T16:40:44.077Z,95908.38
2022-12-03T16:41:46.219Z,95903.34
2022-12-03T16:42:50.980Z,95910.16
2022-12-03T16:43:55.861Z,95909.31
2022-12-03T16:45:13.059Z,95911.84
2022-12-03T16:46:28.604Z,95906.75
2022-12-03T16:47:34.559Z,95907.59
2022-12-03T16:48:39.470Z,95910.97
2022-12-03T16:49:41.960Z,95899.13
2022-12-03T16:50:46.769Z,95905.88
2022-12-03T16:51:51.745Z,95905.09
2022-12-03T16:52:53.906Z,95904.22
2022-12-03T16:53:58.716Z,95900.81
2022-12-03T16:55:01.044Z,95906.75
2022-12-03T16:56:06.031Z,95902.41
2022-12-03T16:57:08.229Z,95910.16
2022-12-03T16:58:13.097Z,95903.34
2022-12-03T16:59:20.700Z,95904.16
2022-12-03T17:00:26.421Z,95910.94
2022-12-03T17:01:28.589Z,95905.84
2022-12-03T17:02:33.501Z,95911.81
2022-12-03T17:03:38.375Z,95907.53
2022-12-03T17:04:40.770Z,95909.22
2022-12-03T17:05:45.503Z,95900.63
2022-12-03T17:06:50.356Z,95908.19
2022-12-03T17:07:52.545Z,95907.34
2022-12-03T17:08:57.402Z,95902.19
2022-12-03T17:10:02.377Z,95894.50
2022-12-03T17:11:07.321Z,95896.31
2022-12-03T17:12:09.536Z,95896.34
2022-12-03T17:13:15.020Z,95890.34
2022-12-03T17:14:19.793Z,95897.19
2022-12-03T17:15:24.540Z,95889.50
2022-12-03T17:16:29.450Z,95890.34
2022-12-03T17:17:34.373Z,95895.44
2022-12-03T17:18:39.209Z,95902.25
2022-12-03T17:19:44.047Z,95902.28
2022-12-03T17:20:48.809Z,95892.03
2022-12-03T17:21:51.006Z,95898.88
2022-12-03T17:22:55.793Z,95899.69
2022-12-03T17:24:00.567Z,95902.25
2022-12-03T17:25:02.672Z,95901.47
2022-12-03T17:26:07.788Z,95902.34
2022-12-03T17:27:11.737Z,95893.81
2022-12-03T17:28:19.374Z,95892.25
2022-12-03T17:29:26.825Z,95887.09
2022-12-03T17:30:29.064Z,95885.44
2022-12-03T17:31:39.943Z,95886.16
2022-12-03T17:32:47.056Z,95889.56
2022-12-03T17:33:49.179Z,95883.72
2022-12-03T17:34:53.966Z,95890.53
2022-12-03T17:35:56.114Z,95886.25
2022-12-03T17:37:00.819Z,95880.38
2022-12-03T17:38:02.961Z,95882.09
2022-12-03T17:39:07.754Z,95883.81
2022-12-03T17:40:12.311Z,95881.16
2022-12-03T17:41:17.416Z,95880.28
2022-12-03T17:42:19.515Z,95878.59
2022-12-03T17:43:24.284Z,95879.47
2022-12-03T17:44:31.654Z,95882.06
2022-12-03T17:45:33.825Z,95875.28
2022-12-03T17:46:38.709Z,95871.09
2022-12-03T17:47:43.938Z,95869.44
2022-12-03T17:48:46.207Z,95869.41
2022-12-03T17:49:54.100Z,95869.34
2022-12-03T17:50:58.202Z,95871.94
2022-12-03T17:52:03.398Z,95866.78
2022-12-03T17:53:10.504Z,95869.34
2022-12-03T17:54:15.254Z,95861.66
2022-12-03T17:55:29.720Z,95873.56
2022-12-03T17:56:39.426Z,95868.47
2022-12-03T17:57:44.303Z,95871.16
2022-12-03T17:58:46.537Z,95861.69
2022-12-03T17:59:54.162Z,95868.56
2022-12-03T18:01:02.085Z,95868.56
2022-12-03T18:02:07.857Z,95871.97
2022-12-03T18:03:12.892Z,95871.06
2022-12-03T18:04:15.271Z,95875.28
2022-12-03T18:05:20.230Z,95880.38
2022-12-03T18:06:26.463Z,95870.13
2022-12-03T18:07:28.649Z,95881.31
2022-12-03T18:08:33.670Z,95869.44
2022-12-03T18:09:35.840Z,95874.53
2022-12-03T18:10:40.596Z,95875.41
2022-12-03T18:11:45.618Z,95870.28
2022-12-03T18:12:47.800Z,95868.56
2022-12-03T18:13:52.679Z,95863.41
2022-12-03T18:15:02.209Z,95870.19
2022-12-03T18:16:07.755Z,95857.47
2022-12-03T18:17:09.987Z,95865.16
2022-12-03T18:18:15.079Z,95860.91
2022-12-03T18:19:19.935Z,95863.41
2022-12-03T18:20:22.257Z,95860.13
2022-12-03T18:21:27.255Z,95859.22
2022-12-03T18:22:32.167Z,95859.28
2022-12-03T18:23:37.491Z,95862.63
2022-12-03T18:24:40.091Z,95860.03
2022-12-03T18:25:45.445Z,95860.03
2022-12-03T18:26:50.412Z,95856.59
2022-12-03T18:27:55.364Z,95863.41
2022-12-03T18:29:00.425Z,95863.47
2022-12-03T18:30:09.823Z,95867.75
2022-12-03T18:31:17.689Z,95861.84
2022-12-03T18:32:29.006Z,95853.31
2022-12-03T18:33:34.450Z,95861.06
2022-12-03T18:34:36.762Z,95858.59
2022-12-03T18:35:41.835Z,95851.69
2022-12-03T18:36:49.343Z,95851.69
2022-12-03T18:37:54.839Z,95854.38
2022-12-03T18:39:01.606Z,95848.34
2022-12-03T18:40:12.692Z,95849.19
2022-12-03T18:41:18.270Z,95858.50
2022-12-03T18:42:25.816Z,95847.66
2022-12-03T18:43:28.490Z,95848.47
2022-12-03T18:44:34.068Z,95851.84
2022-12-03T18:45:41.577Z,95851.81
2022-12-03T18:46:55.164Z,95851.00
2022-12-03T18:48:00.378Z,95851.78
2022-12-03T18:49:05.359Z,95849.28
2022-12-03T18:50:16.667Z,95841.53
2022-12-03T18:51:23.570Z,95844.13
2022-12-03T18:52:25.865Z,95843.44
2022-12-03T18:53:30.672Z,95841.69
2022-12-03T18:54:35.629Z,95843.41
2022-12-03T18:55:37.848Z,95840.84
2022-12-03T18:56:43.412Z,95848.44
2022-12-03T18:57:45.966Z,95843.34
2022-12-03T18:58:50.724Z,95848.47
2022-12-03T18:59:53.387Z,95849.28
2022-12-03T19:01:01.470Z,95846.75
2022-12-03T19:02:06.583Z,95847.59
2022-12-03T19:03:11.821Z,95844.19
2022-12-03T19:04:14.158Z,95848.47
2022-12-03T19:05:19.189Z,95841.63
2022-12-03T19:06:22.129Z,95840.72
2022-12-03T19:07:27.057Z,95845.81
2022-12-03T19:08:33.879Z,95839.94
2022-12-03T19:09:36.121Z,95850.97
2022-12-03T19:10:40.919Z,95848.50
2022-12-03T19:11:46.063Z,95853.59
2022-12-03T19:12:51.151Z,95856.97
2022-12-03T19:13:57.432Z,95857.03
2022-12-03T19:14:59.691Z,95862.97
2022-12-03T19:16:09.184Z,95859.50
2022-12-03T19:17:14.075Z,95856.06
2022-12-03T19:18:16.436Z,95855.25
2022-12-03T19:19:21.215Z,95859.53
2022-12-03T19:20:26.369Z,95859.53
2022-12-03T19:21:33.861Z,95852.75
2022-12-03T19:22:39.546Z,95857.03
2022-12-03T19:24:09.875Z,95852.75
2022-12-03T19:25:10.757Z,95853.63
2022-12-03T19:26:18.179Z,95852.72
2022-12-03T19:27:20.480Z,95857.84
2022-12-03T19:28:25.409Z,95850.94
2022-12-03T19:29:27.740Z,95846.75
2022-12-03T19:30:32.629Z,95849.28
2022-12-03T19:31:40.339Z,95848.34
2022-12-03T19:32:46.123Z,95850.91
2022-12-03T19:33:52.028Z,95847.44
2022-12-03T19:34:54.466Z,95849.88
2022-12-03T19:36:00.490Z,95846.53
2022-12-03T19:37:05.361Z,95846.53
2022-12-03T19:38:08.523Z,95847.41
2022-12-03T19:39:17.143Z,95844.00
2022-12-03T19:40:19.630Z,95831.28
2022-12-03T19:41:26.871Z,95830.41
2022-12-03T19:42:31.354Z,95829.53
2022-12-03T19:43:37.272Z,95843.06
2022-12-03T19:44:39.648Z,95838.84
2022-12-03T19:45:44.703Z,95828.69
2022-12-03T19:46:53.129Z,95836.34
2022-12-03T19:47:55.423Z,95837.19
2022-12-03T19:49:01.970Z,95840.50
2022-12-03T19:50:08.665Z,95840.56
2022-12-03T19:51:33.594Z,95849.97
2022-12-03T19:52:39.482Z,95841.44
2022-12-03T19:53:42.280Z,95829.53
2022-12-03T19:54:47.434Z,95834.66
2022-12-03T19:55:49.770Z,95821.09
2022-12-03T19:56:54.711Z,95827.88
2022-12-03T19:57:59.553Z,95819.28
2022-12-03T19:59:05.199Z,95824.28
2022-12-03T20:00:09.366Z,95827.66
2022-12-03T20:01:17.100Z,95826.91
2022-12-03T20:02:22.232Z,95831.19
2022-12-03T20:03:27.129Z,95821.06
2022-12-03T20:04:29.324Z,95821.88
2022-12-03T20:05:38.610Z,95827.88
2022-12-03T20:06:40.941Z,95834.56
2022-12-03T20:07:45.778Z,95830.34
2022-12-03T20:08:50.956Z,95826.09
2022-12-03T20:09:56.115Z,95822.66
2022-12-03T20:11:08.421Z,95822.66
2022-12-03T20:12:13.292Z,95828.63
2022-12-03T20:13:18.130Z,95831.97
2022-12-03T20:14:21.099Z,95833.72
2022-12-03T20:15:26.095Z,95830.25
2022-12-03T20:16:34.039Z,95831.09
2022-12-03T20:17:41.556Z,95836.16
2022-12-03T20:18:45.755Z,95843.94
2022-12-03T20:19:51.740Z,95837.09
2022-12-03T20:20:57.167Z,95843.94
2022-12-03T20:22:03.117Z,95837.19
2022-12-03T20:23:05.557Z,95834.56
2022-12-03T20:24:13.165Z,95837.06
2022-12-03T20:25:18.111Z,95835.31
2022-12-03T20:26:22.343Z,95828.59
2022-12-03T20:27:27.338Z,95836.28
2022-12-03T20:28:35.240Z,95832.88
2022-12-03T20:29:40.354Z,95831.19
2022-12-03T20:30:44.826Z,95832.88
2022-12-03T20:31:50.428Z,95823.59
2022-12-03T20:32:58.135Z,95826.13
2022-12-03T20:34:05.253Z,95826.97
2022-12-03T20:35:13.132Z,95830.25
2022-12-03T20:36:17.455Z,95826.94
2022-12-03T20:37:22.375Z,95820.06
2022-12-03T20:38:28.118Z,95822.63
2022-12-03T20:39:33.129Z,95812.34
2022-12-03T20:40:36.407Z,95818.34
2022-12-03T20:41:41.475Z,95814.06
2022-12-03T20:42:50.342Z,95820.94
2022-12-03T20:43:53.456Z,95821.78
2022-12-03T20:44:58.610Z,95815.84
2022-12-03T20:46:07.904Z,95813.25
2022-12-03T20:47:13.017Z,95812.34
2022-12-03T20:48:17.877Z,95805.47
2022-12-03T20:49:23.216Z,95811.47
2022-12-03T20:50:28.091Z,95819.16
2022-12-03T20:51:31.297Z,95814.06
2022-12-03T20:52:36.161Z,95813.28
2022-12-03T20:53:41.437Z,95814.06
2022-12-03T20:54:46.748Z,95809.78
2022-12-03T20:55:55.655Z,95811.41
2022-12-03T20:57:03.228Z,95808.91
2022-12-03T20:58:05.576Z,95804.75
2022-12-03T20:59:13.649Z,95805.59
2022-12-03T21:00:16.760Z,95808.16
2022-12-03T21:01:24.219Z,95805.66
2022-12-03T21:02:26.876Z,95806.53
2022-12-03T21:03:36.805Z,95806.53
2022-12-03T21:04:41.989Z,95803.09
2022-12-03T21:05:44.240Z,95810.69
2022-12-03T21:06:51.984Z,95815.84
2022-12-03T21:07:54.798Z,95813.19
2022-12-03T21:09:01.293Z,95813.13
2022-12-03T21:10:06.656Z,95816.53
2022-12-03T21:11:10.379Z,95816.56
2022-12-03T21:12:15.493Z,95817.50
2022-12-03T21:13:18.471Z,95814.06
2022-12-03T21:14:23.412Z,95820.84
2022-12-03T21:15:25.840Z,95800.53
2022-12-03T21:16:59.687Z,95808.09
2022-12-03T21:18:00.162Z,95796.22
2022-12-03T21:19:07.960Z,95799.72
2022-12-03T21:20:10.872Z,95796.28
2022-12-03T21:21:16.950Z,95803.16
2022-12-03T21:22:21.923Z,95805.69
2022-12-03T21:23:24.125Z,95805.69
2022-12-03T21:24:30.070Z,95807.38
2022-12-03T21:25:32.656Z,95805.69
2022-12-03T21:26:37.564Z,95798.03
2022-12-03T21:27:39.928Z,95793.81
2022-12-03T21:28:47.357Z,95796.41
2022-12-03T21:29:52.956Z,95798.19
2022-12-03T21:30:59.643Z,95807.47
2022-12-03T21:32:04.452Z,95799.00
2022-12-03T21:33:07.373Z,95787.06
2022-12-03T21:34:15.152Z,95777.69
2022-12-03T21:35:18.586Z,95770.09
2022-12-03T21:36:23.608Z,95770.16